Time;durP1;ratioP1;P1;durP2;ratioP2;P2;SDS_P1;SDS_P2;PMS_P1;PMS_P2;Temp;Humidity;BMP_temperature;BMP_pressure;BME280_temperature;BME280_humidity;BME280_pressure;Samples;Min_cycle;Max_cycle;Signal;HPM_P1;HPM_P2
2022/09/29 00:00:08;;;;;;;2.90;1.73;;;;;;;12.46;100.00;98681.56;6406025;27;20112;-84
2022/09/29 00:03:09;;;;;;;2.00;1.60;;;;;;;12.44;100.00;98673.84;6371433;27;20395;-84
2022/09/29 00:06:15;;;;;;;2.20;1.35;;;;;;;12.51;100.00;98687.19;6371431;27;20050;-84
2022/09/29 00:09:18;;;;;;;5.63;2.15;;;;;;;12.45;100.00;98679.91;6372631;27;20070;-83
2022/09/29 00:12:19;;;;;;;2.50;1.67;;;;;;;12.38;100.00;98670.97;6371254;27;20375;-84
2022/09/29 00:15:20;;;;;;;3.20;1.75;;;;;;;12.42;100.00;98677.59;6371308;28;20118;-84
2022/09/29 00:18:21;;;;;;;2.92;1.80;;;;;;;12.41;100.00;98678.53;6371072;28;20043;-84
2022/09/29 00:21:22;;;;;;;3.42;1.52;;;;;;;12.42;100.00;98680.19;6405820;27;20072;-84
2022/09/29 00:24:24;;;;;;;2.20;1.33;;;;;;;12.37;100.00;98671.94;6372329;27;20077;-84
2022/09/29 00:27:27;;;;;;;3.40;2.05;;;;;;;12.33;100.00;98657.47;6370923;28;20051;-84
2022/09/29 00:30:28;;;;;;;2.20;1.45;;;;;;;12.35;100.00;98669.44;6371049;28;20045;-85
2022/09/29 00:33:35;;;;;;;5.18;1.73;;;;;;;12.29;100.00;98657.75;6371303;28;20039;-84
2022/09/29 00:36:37;;;;;;;3.28;1.38;;;;;;;12.23;100.00;98644.41;6355198;27;20047;-84
2022/09/29 00:39:38;;;;;;;1.80;1.20;;;;;;;12.17;100.00;98639.72;6376201;27;20070;-84
2022/09/29 00:42:41;;;;;;;1.88;1.40;;;;;;;12.19;100.00;98650.88;6377360;27;20118;-84
2022/09/29 00:45:42;;;;;;;3.35;1.80;;;;;;;12.14;100.00;98638.22;6377072;27;20043;-84
2022/09/29 00:48:43;;;;;;;2.05;1.50;;;;;;;12.10;100.00;98640.28;6375981;27;20035;-84
2022/09/29 00:51:59;;;;;;;3.40;1.08;;;;;;;12.07;100.00;98653.63;6375923;27;20453;-85
2022/09/29 00:55:09;;;;;;;1.85;1.60;;;;;;;12.07;100.00;98655.44;6375818;27;20126;-85
2022/09/29 00:58:15;;;;;;;1.88;1.13;;;;;;;12.09;100.00;98654.31;6375588;27;20039;-84
2022/09/29 01:01:16;;;;;;;2.30;1.33;;;;;;;11.99;100.00;98648.25;6375604;27;20140;-84
2022/09/29 01:04:21;;;;;;;2.35;1.50;;;;;;;12.00;100.00;98655.13;6377133;27;20485;-84
2022/09/29 01:07:23;;;;;;;1.85;1.33;;;;;;;11.84;100.00;98637.34;6376917;27;20201;-84
2022/09/29 01:10:26;;;;;;;;;;;;;;;11.84;100.00;98653.03;6377095;27;20035;-84
2022/09/29 01:13:29;;;;;;;1.50;1.05;;;;;;;11.82;100.00;98641.03;6375395;27;19927;-85
2022/09/29 01:16:31;;;;;;;3.42;1.48;;;;;;;11.71;100.00;98631.56;6375207;27;20383;-81
2022/09/29 01:19:43;;;;;;;;;;;;;;;11.74;100.00;98633.91;6358650;27;20055;-81
2022/09/29 01:23:12;;;;;;;2.03;1.27;;;;;;;11.70;100.00;98635.13;6375011;27;19923;-82
2022/09/29 01:26:48;;;;;;;2.22;1.77;;;;;;;11.70;100.00;98633.34;6374782;27;20047;-81
2022/09/29 01:30:39;;;;;;;1.67;1.38;;;;;;;11.70;100.00;98625.50;6364157;27;20592;-81
2022/09/29 01:34:04;;;;;;;6.85;1.50;;;;;;;11.61;100.00;98622.88;6277776;28;20055;-81
2022/09/29 01:37:15;;;;;;;3.90;1.42;;;;;;;11.68;100.00;98644.91;6305571;28;20051;-81
2022/09/29 01:40:29;;;;;;;4.75;1.48;;;;;;;11.63;100.00;98639.25;6374350;27;20145;-81
2022/09/29 01:43:44;;;;;;;2.35;1.60;;;;;;;11.72;100.00;98642.84;6349177;28;20402;-81
2022/09/29 01:46:57;;;;;;;1.73;1.30;;;;;;;11.70;100.00;98635.97;6331495;28;20055;-82
2022/09/29 01:50:06;;;;;;;2.00;1.63;;;;;;;11.68;100.00;98624.00;6383303;27;20040;-81
2022/09/29 01:53:15;;;;;;;2.35;1.70;;;;;;;11.69;100.00;98626.47;6350082;28;20047;-81
2022/09/29 01:56:24;;;;;;;4.20;1.60;;;;;;;11.72;100.00;98619.34;6348785;28;20422;-81
2022/09/29 01:59:50;;;;;;;1.20;1.10;;;;;;;11.71;100.00;98615.88;6348780;28;20471;-82
2022/09/29 02:03:04;;;;;;;2.22;1.67;;;;;;;11.77;100.00;98609.28;6348733;28;20100;-81
2022/09/29 02:06:26;;;;;;;2.75;1.70;;;;;;;11.79;100.00;98609.97;6348505;28;20437;-82
2022/09/29 02:09:33;;;;;;;2.40;1.63;;;;;;;11.79;100.00;98599.53;6349703;28;20042;-81
2022/09/29 02:12:37;;;;;;;2.33;1.42;;;;;;;11.78;100.00;98590.03;6359893;27;20084;-82
2022/09/29 02:15:43;;;;;;;1.75;1.35;;;;;;;11.88;100.00;98601.31;6367209;27;20406;-82
2022/09/29 02:18:58;;;;;;;2.30;1.60;;;;;;;11.91;100.00;98602.88;6348965;28;20035;-81
2022/09/29 02:21:59;;;;;;;2.53;1.75;;;;;;;11.91;100.00;98610.72;6372605;27;20047;-80
2022/09/29 02:25:00;;;;;;;2.10;1.38;;;;;;;11.96;100.00;98606.69;6375450;27;20031;-80
2022/09/29 02:28:01;;;;;;;4.97;1.70;;;;;;;11.93;100.00;98596.53;6375495;27;20501;-84
2022/09/29 02:31:06;;;;;;;2.55;1.67;;;;;;;11.85;100.00;98591.94;6353165;27;20078;-84
2022/09/29 02:34:12;;;;;;;1.73;1.40;;;;;;;11.96;100.00;98591.00;6349800;28;20049;-83
2022/09/29 02:37:42;;;;;;;2.88;1.83;;;;;;;11.96;100.00;98588.41;6349843;28;20514;-83
2022/09/29 02:40:57;;;;;;;3.42;1.95;;;;;;;12.01;100.00;98588.81;6349602;28;20511;-84
2022/09/29 02:44:12;;;;;;;1.98;1.52;;;;;;;12.04;100.00;98595.56;6348363;28;20046;-84
2022/09/29 02:47:32;;;;;;;3.65;2.40;;;;;;;12.06;100.00;98604.91;6348313;28;20498;-83
2022/09/29 02:50:45;;;;;;;2.35;1.77;;;;;;;12.07;100.00;98598.72;6349021;28;20071;-83
2022/09/29 02:54:20;;;;;;;2.47;1.75;;;;;;;12.04;100.00;98587.72;6347635;28;20123;-84
2022/09/29 02:57:39;;;;;;;2.88;1.67;;;;;;;12.08;100.00;98589.91;6347916;28;20114;-84
2022/09/29 03:00:40;;;;;;;1.92;1.58;;;;;;;12.09;100.00;98591.56;6348272;28;20411;-84
2022/09/29 03:03:42;;;;;;;7.95;1.55;;;;;;;12.15;100.00;98584.13;6382281;27;20043;-84
2022/09/29 03:06:43;;;;;;;2.95;1.73;;;;;;;12.16;100.00;98573.53;6348916;28;20407;-84
2022/09/29 03:09:44;;;;;;;2.65;1.83;;;;;;;12.17;100.00;98558.66;6347752;28;20407;-84
2022/09/29 03:12:46;;;;;;;3.10;1.73;;;;;;;12.17;100.00;98561.28;6347663;28;20050;-84
2022/09/29 03:15:46;;;;;;;2.67;1.77;;;;;;;12.13;100.00;98572.97;6347566;28;20046;-84
2022/09/29 03:18:47;;;;;;;2.25;1.70;;;;;;;12.11;100.00;98560.06;6347583;28;20039;-84
2022/09/29 03:21:49;;;;;;;7.68;1.75;;;;;;;12.10;100.00;98550.56;6347410;28;20043;-85
2022/09/29 03:24:50;;;;;;;2.15;1.58;;;;;;;11.86;100.00;98530.06;6347156;28;20047;-85
2022/09/29 03:27:51;;;;;;;2.13;1.50;;;;;;;11.94;100.00;98552.91;6347373;28;20039;-84
2022/09/29 03:30:54;;;;;;;2.67;1.58;;;;;;;11.81;100.00;98527.03;6347032;28;20047;-85
2022/09/29 03:33:55;;;;;;;3.83;1.92;;;;;;;11.83;100.00;98531.16;6347186;28;20075;-84
2022/09/29 03:36:56;;;;;;;3.30;1.77;;;;;;;11.78;100.00;98529.94;6347197;28;20042;-85
2022/09/29 03:39:59;;;;;;;2.10;1.58;;;;;;;11.78;100.00;98536.00;6348204;28;20100;-85
2022/09/29 03:43:00;;;;;;;2.38;1.60;;;;;;;11.74;100.00;98537.22;6347050;28;20047;-84
2022/09/29 03:46:03;;;;;;;2.53;1.58;;;;;;;11.77;100.00;98544.78;6346937;28;20036;-85
2022/09/29 03:49:04;;;;;;;1.77;1.60;;;;;;;11.76;100.00;98532.69;6348014;28;20039;-85
2022/09/29 03:52:07;;;;;;;2.60;1.98;;;;;;;11.78;100.00;98536.00;6346734;28;20071;-80
2022/09/29 03:55:08;;;;;;;3.80;2.10;;;;;;;11.81;100.00;98543.53;6346739;28;20044;-80
2022/09/29 03:58:09;;;;;;;2.42;1.60;;;;;;;11.89;100.00;98540.28;6346739;28;20040;-80
2022/09/29 04:01:09;;;;;;;1.70;1.35;;;;;;;11.93;100.00;98553.91;6346629;28;20460;-80
2022/09/29 04:04:13;;;;;;;4.13;1.83;;;;;;;11.92;100.00;98552.22;6347753;28;20145;-81
2022/09/29 04:07:13;;;;;;;2.33;1.65;;;;;;;11.97;100.00;98560.50;6360320;27;20043;-80
2022/09/29 04:10:15;;;;;;;3.80;1.58;;;;;;;12.01;100.00;98557.47;6349709;28;20043;-80
2022/09/29 04:13:15;;;;;;;1.92;1.75;;;;;;;12.10;100.00;98568.88;6360345;27;20172;-80
2022/09/29 04:16:16;;;;;;;2.70;1.65;;;;;;;12.10;100.00;98574.91;6364020;27;20116;-80
2022/09/29 04:19:19;;;;;;;4.70;1.95;;;;;;;12.14;100.00;98565.00;6332898;28;20043;-81
2022/09/29 04:22:20;;;;;;;3.08;2.03;;;;;;;12.20;100.00;98568.84;6371123;28;20043;-80
2022/09/29 04:25:21;;;;;;;2.22;1.60;;;;;;;12.19;100.00;98567.19;6371100;28;20104;-80
2022/09/29 04:28:22;;;;;;;2.47;1.60;;;;;;;12.19;100.00;98569.81;6401055;27;20042;-80
2022/09/29 04:31:25;;;;;;;2.00;1.38;;;;;;;12.21;100.00;98560.88;6372334;28;20047;-80
2022/09/29 04:34:26;;;;;;;3.15;1.70;;;;;;;12.18;100.00;98552.47;6371045;28;20479;-79
2022/09/29 04:37:27;;;;;;;4.32;1.90;;;;;;;12.25;100.00;98564.00;6357883;27;20054;-79
2022/09/29 04:40:28;;;;;;;2.22;1.50;;;;;;;12.27;100.00;98562.94;6345427;28;20050;-80
2022/09/29 04:43:28;;;;;;;2.95;1.98;;;;;;;12.24;100.00;98559.75;6379803;27;20048;-80
2022/09/29 04:46:29;;;;;;;1.85;1.60;;;;;;;12.25;100.00;98564.00;6345619;27;20169;-79
2022/09/29 04:49:30;;;;;;;2.72;1.42;;;;;;;12.29;100.00;98558.38;6363168;27;20035;-81
2022/09/29 04:52:31;;;;;;;2.17;1.83;;;;;;;12.39;100.00;98563.56;6404138;27;20127;-81
2022/09/29 04:55:31;;;;;;;2.15;1.52;;;;;;;12.42;100.00;98567.72;6369131;28;20043;-82
2022/09/29 04:58:36;;;;;;;2.10;1.73;;;;;;;12.37;100.00;98556.84;6371805;28;20140;-81
2022/09/29 05:01:36;;;;;;;3.58;2.20;;;;;;;12.36;100.00;98542.13;6371638;27;20050;-81
2022/09/29 05:04:37;;;;;;;7.63;2.10;;;;;;;12.43;100.00;98544.00;6370345;28;20471;-82
2022/09/29 05:07:40;;;;;;;3.03;2.20;;;;;;;12.42;100.00;98537.16;6404894;27;20035;-81
2022/09/29 05:10:46;;;;;;;2.20;1.48;;;;;;;12.45;100.00;98528.19;6371471;27;20039;-81
2022/09/29 05:13:49;;;;;;;4.53;2.47;;;;;;;12.50;100.00;98536.44;6371528;27;20035;-84
2022/09/29 05:16:53;;;;;;;3.10;2.28;;;;;;;12.54;100.00;98534.34;6370480;28;20035;-84
2022/09/29 05:19:54;;;;;;;3.38;2.28;;;;;;;12.54;100.00;98532.56;6371304;27;20122;-84
2022/09/29 05:22:56;;;;;;;7.18;2.72;;;;;;;12.57;100.00;98540.13;6406649;27;20478;-84
2022/09/29 05:26:02;;;;;;;3.40;2.15;;;;;;;12.65;100.00;98553.31;6374602;27;20410;-84
2022/09/29 05:29:09;;;;;;;3.47;2.00;;;;;;;12.70;100.00;98558.09;6376065;27;20456;-84
2022/09/29 05:32:11;;;;;;;3.42;1.83;;;;;;;12.70;100.00;98552.88;6374714;27;20088;-84
2022/09/29 05:35:12;;;;;;;;;;;;;;;12.82;100.00;98548.28;6375121;27;20054;-84
2022/09/29 05:38:13;;;;;;;3.50;2.42;;;;;;;12.85;100.00;98543.59;6357130;27;19924;-84
2022/09/29 05:41:23;;;;;;;3.67;2.45;;;;;;;13.03;100.00;98534.97;6365027;27;20047;-84
2022/09/29 05:44:23;;;;;;;5.15;3.13;;;;;;;13.22;100.00;98547.09;6361048;27;20063;-84
2022/09/29 05:47:24;;;;;;;4.80;3.50;;;;;;;13.32;100.00;98540.03;6348916;28;20439;-84
2022/09/29 05:50:27;;;;;;;5.55;2.80;;;;;;;13.42;100.00;98537.38;6356858;27;20035;-84
2022/09/29 05:53:28;;;;;;;4.30;2.85;;;;;;;13.48;100.00;98529.72;6375606;27;20058;-84
2022/09/29 05:56:31;;;;;;;4.40;2.50;;;;;;;13.50;100.00;98532.22;6374396;27;20487;-84
2022/09/29 06:02:51;;;;;;;3.60;2.38;;;;;;;13.61;100.00;98536.41;6313168;28;20051;-74
2022/09/29 06:05:51;;;;;;;5.88;3.08;;;;;;;13.65;100.00;98546.44;6314953;28;20036;-74
2022/09/29 06:08:56;;;;;;;3.33;2.45;;;;;;;13.65;100.00;98537.75;6329876;28;20093;-74
2022/09/29 06:11:57;;;;;;;3.03;1.92;;;;;;;13.67;100.00;98551.53;6330350;28;20499;-74
2022/09/29 06:15:01;;;;;;;4.22;2.08;;;;;;;13.69;100.00;98550.41;6319145;28;20444;-74
2022/09/29 06:18:02;;;;;;;2.78;1.80;;;;;;;13.72;100.00;98544.03;6349722;28;20071;-74
2022/09/29 06:21:07;;;;;;;3.30;2.17;;;;;;;13.78;100.00;98559.19;6317155;28;20044;-74
2022/09/29 06:24:08;;;;;;;5.97;2.13;;;;;;;13.79;100.00;98554.75;6307583;28;20415;-74
2022/09/29 06:27:09;;;;;;;2.70;1.70;;;;;;;13.81;100.00;98560.66;6337676;28;20479;-73
2022/09/29 06:30:12;;;;;;;3.97;2.13;;;;;;;13.78;100.00;98550.50;6324723;28;20093;-75
2022/09/29 06:33:12;;;;;;;2.60;1.80;;;;;;;13.95;100.00;98560.13;6315663;28;20036;-74
2022/09/29 06:39:45;;;;;;;4.10;2.28;;;;;;;14.00;100.00;98599.84;6323867;28;20517;-74
2022/09/29 06:42:45;;;;;;;5.07;2.25;;;;;;;13.86;100.00;98595.13;6323619;28;20043;-74
2022/09/29 06:45:46;;;;;;;3.33;1.90;;;;;;;14.23;100.00;98609.88;6304266;28;20040;-74
2022/09/29 06:48:49;;;;;;;3.03;1.90;;;;;;;14.30;100.00;98606.47;6322851;28;20051;-73
2022/09/29 06:51:57;;;;;;;2.00;1.70;;;;;;;14.09;100.00;98616.47;6325694;28;20642;-73
2022/09/29 06:54:58;;;;;;;4.72;2.45;;;;;;;14.18;100.00;98622.59;6298747;28;20108;-74
2022/09/29 06:57:59;;;;;;;3.78;1.88;;;;;;;14.26;100.00;98620.88;6295980;28;20048;-74
2022/09/29 07:01:01;;;;;;;3.92;2.47;;;;;;;14.41;100.00;98634.28;6324313;28;20407;-74
2022/09/29 07:04:02;;;;;;;3.00;1.90;;;;;;;14.32;100.00;98627.31;6324955;28;20096;-73
2022/09/29 07:07:03;;;;;;;2.95;1.90;;;;;;;14.37;100.00;98629.47;6348391;28;20448;-73
2022/09/29 07:10:04;;;;;;;3.88;2.38;;;;;;;14.42;100.00;98635.91;6348562;28;20063;-74
2022/09/29 07:13:05;;;;;;;3.05;1.90;;;;;;;14.51;100.00;98634.97;6339632;28;20135;-73
2022/09/29 07:16:08;;;;;;;4.15;2.22;;;;;;;14.66;100.00;98637.09;6342333;28;20040;-74
2022/09/29 07:19:09;;;;;;;7.55;2.38;;;;;;;14.72;100.00;98625.97;6288331;28;20542;-74
2022/09/29 07:22:10;;;;;;;5.60;2.45;;;;;;;14.91;100.00;98617.88;6323019;28;20087;-74
2022/09/29 07:25:10;;;;;;;3.28;2.00;;;;;;;14.98;100.00;98623.31;6304860;28;20581;-73
2022/09/29 07:28:11;;;;;;;4.35;2.22;;;;;;;15.10;100.00;98618.63;6287965;28;20044;-74
2022/09/29 07:31:16;;;;;;;3.30;2.13;;;;;;;15.11;100.00;98615.00;6312117;28;20036;-74
2022/09/29 07:34:17;;;;;;;4.00;2.53;;;;;;;14.99;100.00;98621.50;6320263;28;20048;-74
2022/09/29 07:37:18;;;;;;;5.07;2.83;;;;;;;14.84;100.00;98622.09;6304456;28;20044;-74
2022/09/29 07:40:21;;;;;;;3.28;2.40;;;;;;;14.82;100.00;98628.50;6304632;28;20047;-74
2022/09/29 07:43:22;;;;;;;2.90;2.10;;;;;;;15.10;100.00;98634.38;6322495;28;20040;-74
2022/09/29 07:46:22;;;;;;;2.60;2.00;;;;;;;15.33;100.00;98639.91;6304015;28;20458;-74
2022/09/29 07:49:23;;;;;;;3.53;2.00;;;;;;;15.48;100.00;98645.38;6304382;28;20499;-74
2022/09/29 07:52:24;;;;;;;3.08;2.15;;;;;;;15.56;100.00;98631.44;6304505;28;20101;-74
2022/09/29 07:55:26;;;;;;;2.10;1.70;;;;;;;15.63;100.00;98627.19;6322301;28;20494;-74
2022/09/29 07:58:27;;;;;;;;;;;;;;;16.00;100.00;98642.59;6322634;28;20552;-74
2022/09/29 08:01:27;;;;;;;2.78;2.15;;;;;;;16.04;100.00;98635.16;6304199;28;19920;-74
2022/09/29 08:04:28;;;;;;;4.78;2.50;;;;;;;16.14;100.00;98629.75;6303926;28;20097;-75
2022/09/29 08:07:29;;;;;;;3.28;2.35;;;;;;;16.36;100.00;98623.00;6322101;28;20058;-74
2022/09/29 08:10:32;;;;;;;2.85;1.92;;;;;;;16.18;100.00;98625.81;6321956;28;20495;-73
2022/09/29 08:13:34;;;;;;;3.30;1.98;;;;;;;16.16;100.00;98623.31;6288724;28;20048;-74
2022/09/29 08:16:36;;;;;;;5.18;1.88;;;;;;;16.14;100.00;98617.41;6304009;28;20040;-73
2022/09/29 08:19:37;;;;;;;3.45;2.08;;;;;;;16.36;100.00;98615.13;6330705;28;20112;-74
2022/09/29 08:22:37;;;;;;;3.65;1.67;;;;;;;16.48;100.00;98624.31;6312072;28;20051;-74
2022/09/29 08:25:38;;;;;;;3.00;1.65;;;;;;;16.82;100.00;98625.94;6347254;28;20043;-73
2022/09/29 08:28:40;;;;;;;2.58;1.80;;;;;;;17.24;100.00;98632.72;6311994;28;20047;-74
2022/09/29 08:31:42;;;;;;;3.80;1.80;;;;;;;17.19;100.00;98630.59;6347138;28;20093;-74
2022/09/29 08:34:43;;;;;;;5.78;1.67;;;;;;;17.66;100.00;98634.97;6311924;28;20052;-75
2022/09/29 08:37:44;;;;;;;4.78;1.75;;;;;;;17.98;100.00;98633.19;6346960;28;20044;-74
2022/09/29 08:40:44;;;;;;;2.22;1.30;;;;;;;17.82;100.00;98631.44;6332420;28;20456;-74
2022/09/29 08:43:49;;;;;;;2.55;1.52;;;;;;;17.67;100.00;98635.81;6327062;28;20044;-74
2022/09/29 08:46:56;;;;;;;3.58;1.67;;;;;;;17.51;100.00;98632.25;6301530;28;20076;-74
2022/09/29 09:27:25;;;;;;;3.03;1.90;;;;;;;19.41;99.75;98650.78;6343778;27;20372;-74
2022/09/29 09:30:34;;;;;;;4.63;1.83;;;;;;;19.16;100.00;98655.56;6329495;28;20048;-74
2022/09/29 09:33:57;;;;;;;3.30;1.60;;;;;;;19.61;98.03;98661.63;6308889;28;20140;-74
2022/09/29 09:37:12;;;;;;;6.50;1.92;;;;;;;19.79;97.96;98648.03;6292018;28;20053;-74
2022/09/29 09:40:19;;;;;;;2.33;1.52;;;;;;;19.84;100.00;98647.47;6292243;28;20451;-74
2022/09/29 09:43:25;;;;;;;5.40;1.90;;;;;;;20.31;97.50;98660.13;6291829;28;20052;-74
2022/09/29 09:46:38;;;;;;;2.35;1.58;;;;;;;20.32;95.53;98655.66;6293082;28;20049;-74
2022/09/29 09:49:46;;;;;;;2.20;1.35;;;;;;;20.23;95.43;98660.25;6291753;28;20479;-74
2022/09/29 09:53:03;;;;;;;3.78;1.63;;;;;;;20.23;94.96;98660.25;6306001;28;20039;-75
2022/09/29 09:56:49;;;;;;;3.47;2.20;;;;;;;20.87;92.43;98662.03;6343253;28;20666;-75
2022/09/29 10:00:05;;;;;;;2.63;1.40;;;;;;;20.46;91.02;98667.19;6273354;28;20081;-76
2022/09/29 10:03:07;;;;;;;2.17;1.30;;;;;;;20.35;95.17;98665.06;6260717;28;20048;-75
2022/09/29 10:06:08;;;;;;;2.65;1.85;;;;;;;20.30;94.21;98662.97;6341820;28;20494;-75
2022/09/29 10:09:14;;;;;;;3.53;1.60;;;;;;;20.61;90.87;98660.03;6341803;28;20040;-74
2022/09/29 10:12:17;;;;;;;6.40;1.45;;;;;;;20.72;88.42;98667.44;6339213;28;20040;-74
2022/09/29 10:15:30;;;;;;;5.07;1.90;;;;;;;20.95;88.09;98660.25;6341539;28;20074;-75
2022/09/29 10:18:40;;;;;;;1.90;1.63;;;;;;;21.40;89.90;98661.50;6314907;28;20044;-75
2022/09/29 10:21:43;;;;;;;2.67;1.52;;;;;;;21.17;87.20;98664.47;6287407;28;20549;-74
2022/09/29 10:24:43;;;;;;;2.83;2.08;;;;;;;20.45;89.82;98673.50;6291572;28;20052;-75
2022/09/29 10:27:49;;;;;;;2.13;1.80;;;;;;;20.53;91.08;98668.09;6278234;28;20412;-75
2022/09/29 10:30:53;;;;;;;3.42;1.63;;;;;;;20.81;87.52;98673.41;6274217;28;20072;-75
2022/09/29 10:34:00;;;;;;;2.97;1.85;;;;;;;20.91;88.63;98679.19;6273925;28;20060;-75
2022/09/29 10:37:04;;;;;;;3.85;1.67;;;;;;;20.65;89.70;98679.81;6273963;28;20053;-74
2022/09/29 10:40:13;;;;;;;1.65;1.55;;;;;;;20.68;92.16;98675.97;6278111;28;20036;-76
2022/09/29 10:43:33;;;;;;;2.60;1.65;;;;;;;20.77;91.27;98666.84;6315309;28;20059;-76
2022/09/29 10:46:53;;;;;;;6.45;1.98;;;;;;;20.53;92.85;98668.88;6307634;28;20115;-76
2022/09/29 10:50:13;;;;;;;3.47;1.73;;;;;;;20.56;91.53;98666.88;6308609;28;20055;-74
2022/09/29 10:53:32;;;;;;;1.92;1.65;;;;;;;20.58;91.21;98664.84;6322523;28;20047;-76
2022/09/29 10:56:33;;;;;;;3.85;2.03;;;;;;;20.56;93.82;98665.03;6324660;28;20047;-76
2022/09/29 10:59:46;;;;;;;5.00;1.83;;;;;;;20.65;92.64;98671.03;6324847;28;20069;-77
2022/09/29 11:02:48;;;;;;;4.25;1.80;;;;;;;20.76;93.44;98675.00;6306453;28;20503;-76
2022/09/29 11:06:27;;;;;;;7.22;1.70;;;;;;;20.97;88.26;98682.09;6324712;28;20044;-75
2022/09/29 11:09:29;;;;;;;8.13;2.08;;;;;;;20.57;90.17;98690.53;6304106;28;20052;-75
2022/09/29 11:12:33;;;;;;;3.40;1.83;;;;;;;20.24;89.27;98696.34;6323268;28;20097;-74
2022/09/29 11:15:39;;;;;;;4.50;1.90;;;;;;;20.01;93.32;98701.78;6323150;28;20105;-74
2022/09/29 11:18:42;;;;;;;3.30;1.70;;;;;;;19.77;100.00;98696.84;6308561;28;20510;-75
2022/09/29 11:21:53;;;;;;;4.50;2.30;;;;;;;19.64;100.00;98690.38;6297947;28;20041;-73
2022/09/29 11:25:15;;;;;;;4.75;2.10;;;;;;;19.55;100.00;98696.75;6297542;28;20048;-74
2022/09/29 11:28:50;;;;;;;2.72;1.90;;;;;;;19.61;100.00;98696.03;6299032;28;20044;-77
2022/09/29 11:32:01;;;;;;;2.72;1.88;;;;;;;19.44;100.00;98703.34;6297490;28;20457;-77
2022/09/29 11:35:04;;;;;;;2.42;1.90;;;;;;;19.39;100.00;98696.94;6297666;28;20070;-76
2022/09/29 11:38:29;;;;;;;2.65;1.83;;;;;;;19.22;100.00;98702.44;6297660;28;20041;-76
2022/09/29 11:41:46;;;;;;;3.80;2.08;;;;;;;18.96;100.00;98699.41;6297490;28;20040;-76
2022/09/29 11:44:58;;;;;;;5.75;2.63;;;;;;;18.73;100.00;98700.22;6296819;28;20123;-76
2022/09/29 11:48:19;;;;;;;2.78;2.20;;;;;;;18.77;100.00;98700.72;6297568;28;20094;-76
2022/09/29 11:51:27;;;;;;;3.28;2.63;;;;;;;19.15;100.00;98698.88;6305368;28;20069;-76
2022/09/29 11:55:04;;;;;;;4.25;2.58;;;;;;;19.36;100.00;98692.84;6301758;28;20139;-76
2022/09/29 11:58:05;;;;;;;3.67;2.90;;;;;;;19.09;100.00;98694.31;6306793;28;20045;-76
2022/09/29 12:01:12;;;;;;;5.93;2.93;;;;;;;19.12;100.00;98705.34;6289830;28;20052;-76
2022/09/29 12:04:45;;;;;;;6.75;3.25;;;;;;;19.15;100.00;98709.47;6301882;28;20559;-76
2022/09/29 12:08:06;;;;;;;3.40;2.72;;;;;;;19.04;100.00;98710.69;6303943;28;20054;-76
2022/09/29 12:11:30;;;;;;;4.50;3.15;;;;;;;19.12;100.00;98713.25;6311567;28;20075;-76
2022/09/29 12:14:52;;;;;;;4.88;3.20;;;;;;;19.37;100.00;98712.19;6297518;28;20051;-76
2022/09/29 12:17:58;;;;;;;4.88;3.03;;;;;;;19.46;100.00;98719.84;6296439;28;20450;-77
2022/09/29 12:21:00;;;;;;;4.85;2.80;;;;;;;19.51;100.00;98720.09;6308825;28;20052;-76
2022/09/29 12:24:05;;;;;;;6.05;3.50;;;;;;;19.86;100.00;98723.00;6322498;28;20118;-76
2022/09/29 12:27:30;;;;;;;4.72;3.17;;;;;;;19.76;100.00;98721.66;6319691;28;20063;-76
2022/09/29 12:30:40;;;;;;;3.65;3.17;;;;;;;19.77;100.00;98724.13;6288985;28;20428;-76
2022/09/29 12:33:47;;;;;;;4.88;3.50;;;;;;;20.36;100.00;98722.31;6284047;28;20487;-76
2022/09/29 12:37:02;;;;;;;4.85;3.38;;;;;;;20.30;100.00;98724.72;6307824;28;20044;-76
2022/09/29 12:40:31;;;;;;;6.00;3.45;;;;;;;20.43;100.00;98717.91;6302349;28;20075;-76
2022/09/29 12:43:44;;;;;;;5.22;3.35;;;;;;;20.30;100.00;98722.06;6313055;28;20058;-76
2022/09/29 12:47:01;;;;;;;3.67;2.90;;;;;;;19.88;100.00;98725.47;6304960;28;20065;-76
2022/09/29 12:50:10;;;;;;;3.67;2.97;;;;;;;19.49;100.00;98724.75;6296703;28;20040;-76
2022/09/29 12:53:25;;;;;;;6.43;2.95;;;;;;;19.22;100.00;98731.50;6308670;28;20051;-76
2022/09/29 12:56:38;;;;;;;4.65;2.35;;;;;;;18.97;100.00;98725.66;6310182;28;20040;-76
2022/09/29 12:59:47;;;;;;;2.83;1.85;;;;;;;19.51;100.00;98719.28;6322345;28;20064;-76
2022/09/29 13:03:32;;;;;;;3.50;2.03;;;;;;;19.85;100.00;98720.53;6288504;28;20407;-76
2022/09/29 13:06:45;;;;;;;3.53;1.73;;;;;;;19.83;100.00;98728.69;6278300;28;20048;-76
2022/09/29 13:10:06;;;;;;;4.20;2.00;;;;;;;19.84;100.00;98738.25;6297598;28;20040;-76
2022/09/29 13:13:13;;;;;;;2.80;2.25;;;;;;;20.10;100.00;98731.63;6301214;28;20396;-76
2022/09/29 13:16:40;;;;;;;2.97;1.95;;;;;;;19.82;99.99;98734.16;6304462;28;20052;-77
2022/09/29 14:15:38;;;;;;;2.60;1.90;;;;;;;20.31;94.98;98781.97;5463854;27;1663688;-73
2022/09/29 14:18:45;;;;;;;2.83;1.80;;;;;;;20.46;91.48;98775.81;6375523;27;20099;-74
2022/09/29 14:21:52;;;;;;;3.78;2.17;;;;;;;20.22;92.59;98782.25;6393739;27;20464;-73
2022/09/29 14:24:54;;;;;;;3.65;2.00;;;;;;;20.01;93.04;98781.22;6375014;27;20047;-72
2022/09/29 14:27:57;;;;;;;;;;;;;;;19.55;96.07;98778.78;6394240;27;20074;-76
2022/09/29 14:31:01;;;;;;;2.83;2.20;;;;;;;19.60;98.17;98772.91;6357996;27;19923;-73
2022/09/29 14:34:02;;;;;;;4.32;2.55;;;;;;;19.56;99.39;98780.44;6374876;27;20055;-73
2022/09/29 14:37:06;;;;;;;4.47;2.97;;;;;;;19.45;99.07;98779.03;6374981;27;20035;-73
2022/09/29 14:40:29;;;;;;;5.05;3.40;;;;;;;19.42;100.00;98775.94;6369781;27;20478;-73
2022/09/29 14:43:44;;;;;;;8.27;4.22;;;;;;;19.66;100.00;98770.38;6357866;27;20123;-76
2022/09/29 14:53:53;;;;;;;4.80;2.55;;;;;;;19.60;93.89;98776.41;6357613;27;20062;-73
2022/09/29 14:57:22;;;;;;;6.30;2.10;;;;;;;19.40;99.67;98776.13;6357476;27;20035;-73
2022/09/29 15:00:34;;;;;;;3.45;2.80;;;;;;;19.16;100.00;98781.66;6339721;27;20160;-73
2022/09/29 15:03:45;;;;;;;3.55;2.72;;;;;;;19.07;100.00;98784.38;6358440;27;20047;-74
2022/09/29 15:06:49;;;;;;;7.05;2.90;;;;;;;19.01;100.00;98786.91;6357716;27;20039;-73
2022/09/29 15:09:58;;;;;;;3.97;2.70;;;;;;;18.97;100.00;98798.84;6357905;27;20050;-75
2022/09/29 15:13:30;;;;;;;6.70;3.55;;;;;;;18.88;100.00;98798.06;6357247;27;20043;-73
2022/09/29 15:16:43;;;;;;;4.95;3.00;;;;;;;18.72;100.00;98807.75;6341038;27;20079;-73
2022/09/29 15:19:58;;;;;;;4.47;2.67;;;;;;;18.83;100.00;98806.53;6375177;27;20367;-73
2022/09/29 15:23:56;;;;;;;24.52;10.07;;;;;;;18.60;100.00;98803.88;6356822;27;20041;-72
2022/09/29 15:27:03;;;;;;;9.65;5.65;;;;;;;18.77;100.00;98806.41;6279402;27;20055;-73
2022/09/29 15:30:12;;;;;;;4.53;3.35;;;;;;;18.87;100.00;98809.66;6375083;27;20054;-73
2022/09/29 15:33:21;;;;;;;3.80;2.70;;;;;;;18.82;100.00;98810.19;6373293;27;20062;-73
2022/09/29 15:36:22;;;;;;;3.88;2.63;;;;;;;18.80;100.00;98816.63;6356237;27;20494;-72
2022/09/29 15:39:32;;;;;;;3.00;2.38;;;;;;;18.73;100.00;98805.91;6313428;28;20059;-72
2022/09/29 15:42:37;;;;;;;3.25;2.33;;;;;;;18.56;100.00;98820.25;6295693;28;20041;-73
2022/09/29 15:45:38;;;;;;;3.30;2.55;;;;;;;18.35;100.00;98826.16;6280242;28;20087;-73
2022/09/29 15:48:41;;;;;;;2.77;2.33;;;;;;;18.42;100.00;98832.38;6280231;28;20508;-72
2022/09/29 15:51:55;;;;;;;2.95;2.45;;;;;;;18.35;100.00;98823.53;6297261;28;20049;-76
2022/09/29 15:54:57;;;;;;;4.70;2.85;;;;;;;18.26;100.00;98826.19;6280153;28;20119;-76
2022/09/29 15:58:00;;;;;;;4.07;3.05;;;;;;;18.20;100.00;98829.53;6298044;28;20048;-76
2022/09/29 16:01:09;;;;;;;6.50;2.92;;;;;;;18.07;100.00;98830.06;6298258;28;20048;-73
2022/09/29 16:04:10;;;;;;;6.35;2.88;;;;;;;17.94;100.00;98831.63;6280232;28;20068;-73
2022/09/29 16:07:47;;;;;;;4.00;3.33;;;;;;;17.87;100.00;98832.31;6279213;28;20058;-73
2022/09/29 16:10:56;;;;;;;4.45;3.05;;;;;;;17.73;100.00;98832.97;6243230;28;20052;-75
2022/09/29 16:14:10;;;;;;;8.80;5.30;;;;;;;17.75;100.00;98825.72;6263444;28;20056;-76
2022/09/29 16:17:12;;;;;;;11.82;6.50;;;;;;;17.68;100.00;98822.09;6297240;28;20040;-74
2022/09/29 16:20:23;;;;;;;10.97;6.80;;;;;;;17.55;100.00;98814.72;6279650;28;20052;-73